Time;durP1;ratioP1;P1;durP2;ratioP2;P2;SDS_P1;SDS_P2;PMS_P1;PMS_P2;Temp;Humidity;BMP_temperature;BMP_pressure;BME280_temperature;BME280_humidity;BME280_pressure;Samples;Min_cycle;Max_cycle;Signal;HPM_P1;HPM_P2
2023/09/14 00:00:52;;;;;;;9.43;3.70;;;;;;;;;;5033315;28;20183;-69
2023/09/14 00:03:18;;;;;;;11.20;3.80;;;;;;;;;;5033175;28;20586;-68
2023/09/14 00:05:45;;;;;;;9.80;4.13;;;;;;;;;;5015792;28;20203;-68
2023/09/14 00:08:11;;;;;;;14.00;4.30;;;;;;;;;;5033684;28;20179;-68
2023/09/14 00:10:37;;;;;;;7.93;3.33;;;;;;;;;;5047955;22;20230;-70
2023/09/14 00:13:03;;;;;;;7.33;3.70;;;;;;;;;;5032996;28;20183;-70
2023/09/14 00:15:30;;;;;;;12.70;4.77;;;;;;;;;;5032818;28;20175;-70
2023/09/14 00:17:56;;;;;;;8.30;4.03;;;;;;;;;;5015037;28;20262;-70
2023/09/14 00:20:23;;;;;;;5.97;3.60;;;;;;;;;;5015133;28;20198;-70
2023/09/14 00:22:53;;;;;;;7.73;3.87;;;;;;;;;;5015174;28;20649;-70
2023/09/14 00:25:20;;;;;;;9.23;3.80;;;;;;;;;;5015461;28;20175;-70
2023/09/14 00:27:46;;;;;;;9.70;3.87;;;;;;;;;;5015132;28;20175;-70
2023/09/14 00:30:12;;;;;;;12.17;3.60;;;;;;;;;;5033086;28;20680;-70
2023/09/14 00:32:42;;;;;;;10.17;3.97;;;;;;;;;;5015308;28;20190;-70
2023/09/14 00:35:09;;;;;;;11.17;3.57;;;;;;;;;;5015333;28;20206;-70
2023/09/14 00:37:35;;;;;;;7.33;3.20;;;;;;;;;;5032559;28;20205;-70
2023/09/14 00:40:06;;;;;;;8.87;3.13;;;;;;;;;;5014788;28;20289;-70
2023/09/14 00:42:36;;;;;;;13.03;3.27;;;;;;;;;;5032781;28;20192;-70
2023/09/14 00:45:03;;;;;;;14.47;3.93;;;;;;;;;;5032677;28;20179;-70
2023/09/14 00:47:29;;;;;;;10.20;3.40;;;;;;;;;;5014831;28;20175;-70
2023/09/14 00:49:55;;;;;;;10.23;3.63;;;;;;;;;;5032461;28;20203;-70
2023/09/14 00:52:21;;;;;;;8.87;3.23;;;;;;;;;;5014878;28;20187;-71
2023/09/14 00:54:47;;;;;;;13.10;4.20;;;;;;;;;;5016214;28;20183;-71
2023/09/14 00:57:13;;;;;;;10.30;4.33;;;;;;;;;;5018447;28;20270;-71
2023/09/14 00:59:39;;;;;;;9.60;4.03;;;;;;;;;;5035697;28;20210;-71
2023/09/14 01:02:05;;;;;;;9.47;3.97;;;;;;;;;;5035989;28;20198;-70
2023/09/14 01:04:31;;;;;;;12.20;3.93;;;;;;;;;;5018343;28;20179;-70
2023/09/14 01:06:57;;;;;;;10.23;4.30;;;;;;;;;;5036224;28;20285;-70
2023/09/14 01:09:23;;;;;;;7.73;3.43;;;;;;;;;;5035829;28;20304;-70
2023/09/14 01:11:49;;;;;;;8.67;3.40;;;;;;;;;;5018351;28;20181;-70
2023/09/14 01:14:23;;;;;;;8.73;3.97;;;;;;;;;;5018135;28;20278;-70
2023/09/14 01:16:54;;;;;;;10.30;3.53;;;;;;;;;;5035832;28;20177;-70
2023/09/14 01:19:32;;;;;;;9.33;3.80;;;;;;;;;;5036051;28;20210;-70
2023/09/14 01:22:04;;;;;;;9.97;3.60;;;;;;;;;;5035573;28;20187;-70
2023/09/14 01:24:39;;;;;;;10.43;3.83;;;;;;;;;;5017588;28;20183;-70
2023/09/14 01:27:05;;;;;;;9.97;3.43;;;;;;;;;;5035839;28;20597;-70
2023/09/14 01:29:32;;;;;;;7.47;3.53;;;;;;;;;;5035536;28;20229;-72
2023/09/14 01:31:58;;;;;;;9.87;3.83;;;;;;;;;;5035369;28;20262;-70
2023/09/14 01:34:24;;;;;;;10.60;3.83;;;;;;;;;;5017629;28;20183;-69
2023/09/14 01:36:51;;;;;;;10.03;3.80;;;;;;;;;;5035496;28;20179;-70
2023/09/14 01:39:18;;;;;;;12.53;3.57;;;;;;;;;;5035102;28;20199;-70
2023/09/14 01:41:44;;;;;;;10.23;3.60;;;;;;;;;;5017265;28;20203;-70
2023/09/14 01:44:10;;;;;;;10.07;3.93;;;;;;;;;;5017534;28;20183;-69
2023/09/14 01:46:36;;;;;;;11.33;3.40;;;;;;;;;;5017178;28;20270;-70
2023/09/14 01:49:02;;;;;;;9.03;3.27;;;;;;;;;;5035006;28;20197;-70
2023/09/14 01:51:29;;;;;;;11.50;3.70;;;;;;;;;;5035055;28;20211;-70
2023/09/14 01:53:55;;;;;;;12.40;3.70;;;;;;;;;;5035395;28;20175;-70
2023/09/14 01:56:21;;;;;;;11.20;3.40;;;;;;;;;;5017068;28;20333;-69
2023/09/14 01:58:47;;;;;;;9.43;3.40;;;;;;;;;;5017065;28;20224;-69
2023/09/14 02:01:13;;;;;;;12.10;4.23;;;;;;;;;;5017111;28;20585;-69
2023/09/14 02:03:39;;;;;;;14.40;3.47;;;;;;;;;;5034632;28;20181;-70
2023/09/14 02:06:05;;;;;;;8.10;3.67;;;;;;;;;;5016879;28;20233;-70
2023/09/14 02:08:31;;;;;;;9.90;3.43;;;;;;;;;;5020678;28;20278;-69
2023/09/14 02:10:57;;;;;;;8.33;3.50;;;;;;;;;;5021635;28;20222;-70
2023/09/14 02:13:23;;;;;;;10.87;3.50;;;;;;;;;;5037563;28;20183;-69
2023/09/14 02:15:50;;;;;;;11.00;4.37;;;;;;;;;;5035843;28;20180;-69
2023/09/14 02:18:16;;;;;;;10.13;3.43;;;;;;;;;;5017609;28;20183;-70
2023/09/14 02:20:43;;;;;;;10.23;3.73;;;;;;;;;;5034973;28;20199;-69
2023/09/14 02:23:09;;;;;;;13.60;4.07;;;;;;;;;;5035213;28;20252;-69
2023/09/14 02:25:35;;;;;;;10.83;3.70;;;;;;;;;;5034940;28;20175;-69
2023/09/14 02:28:01;;;;;;;7.23;2.97;;;;;;;;;;5034886;28;20207;-70
2023/09/14 02:30:27;;;;;;;10.37;4.27;;;;;;;;;;5034438;28;20258;-70
2023/09/14 02:32:53;;;;;;;16.40;4.50;;;;;;;;;;5034475;28;20327;-70
2023/09/14 02:35:19;;;;;;;12.13;4.63;;;;;;;;;;5034451;28;20183;-69
2023/09/14 02:37:45;;;;;;;18.70;4.50;;;;;;;;;;5034249;28;20180;-69
2023/09/14 02:40:12;;;;;;;14.23;4.50;;;;;;;;;;5016793;28;20581;-70
2023/09/14 02:42:38;;;;;;;6.80;3.87;;;;;;;;;;5034813;28;20202;-70
2023/09/14 02:45:05;;;;;;;10.80;4.20;;;;;;;;;;5016698;28;20563;-70
2023/09/14 02:47:31;;;;;;;13.63;4.67;;;;;;;;;;5034153;28;20233;-70
2023/09/14 02:49:57;;;;;;;13.60;4.13;;;;;;;;;;5033993;28;20203;-70
2023/09/14 02:52:22;;;;;;;13.67;4.70;;;;;;;;;;5034595;28;20273;-70
2023/09/14 02:54:48;;;;;;;9.97;4.33;;;;;;;;;;5034077;28;20186;-70
2023/09/14 02:57:14;;;;;;;7.73;4.20;;;;;;;;;;5015940;28;20191;-70
2023/09/14 02:59:40;;;;;;;12.63;4.83;;;;;;;;;;5033769;28;20207;-70
2023/09/14 03:02:07;;;;;;;16.90;5.27;;;;;;;;;;5016214;28;20437;-70
2023/09/14 03:04:33;;;;;;;12.60;4.70;;;;;;;;;;5015756;28;20175;-70
2023/09/14 03:06:59;;;;;;;14.17;4.67;;;;;;;;;;5033590;28;20179;-70
2023/09/14 03:09:25;;;;;;;9.50;4.80;;;;;;;;;;5033577;28;20238;-70
2023/09/14 03:11:50;;;;;;;15.07;4.97;;;;;;;;;;5015905;28;20180;-70
2023/09/14 03:14:16;;;;;;;14.40;5.40;;;;;;;;;;5033444;28;20236;-69
2023/09/14 03:16:42;;;;;;;12.90;5.77;;;;;;;;;;5016514;28;20221;-70
2023/09/14 03:19:08;;;;;;;18.43;4.90;;;;;;;;;;5015251;28;20549;-70
2023/09/14 03:21:34;;;;;;;10.63;5.60;;;;;;;;;;5034012;28;20643;-70
2023/09/14 03:24:00;;;;;;;14.40;5.30;;;;;;;;;;5033231;28;20193;-70
2023/09/14 03:26:27;;;;;;;12.83;5.27;;;;;;;;;;5015599;28;20171;-70
2023/09/14 03:28:53;;;;;;;10.83;4.80;;;;;;;;;;5015280;28;20206;-70
2023/09/14 03:31:19;;;;;;;11.97;5.50;;;;;;;;;;5033191;28;20685;-71
2023/09/14 03:33:50;;;;;;;10.60;4.90;;;;;;;;;;5033164;28;20171;-71
2023/09/14 03:36:17;;;;;;;12.43;4.90;;;;;;;;;;5015306;28;20175;-70
2023/09/14 03:38:43;;;;;;;11.60;4.80;;;;;;;;;;5032974;28;20656;-70
2023/09/14 03:41:10;;;;;;;11.40;5.30;;;;;;;;;;5032982;28;20203;-70
2023/09/14 03:43:36;;;;;;;9.03;4.73;;;;;;;;;;5015282;28;20218;-71
2023/09/14 03:46:02;;;;;;;9.77;3.93;;;;;;;;;;5032997;28;20201;-70
2023/09/14 03:48:28;;;;;;;8.63;4.33;;;;;;;;;;5032983;28;20175;-71
2023/09/14 03:50:58;;;;;;;11.47;4.87;;;;;;;;;;5032923;28;20195;-71
2023/09/14 03:53:24;;;;;;;11.47;4.63;;;;;;;;;;5032880;28;20182;-70
2023/09/14 03:55:50;;;;;;;9.60;4.20;;;;;;;;;;5033074;28;20258;-71
2023/09/14 03:58:16;;;;;;;13.13;4.87;;;;;;;;;;5015093;28;20565;-70
2023/09/14 04:00:43;;;;;;;7.93;4.20;;;;;;;;;;5033543;28;20225;-70
2023/09/14 04:03:09;;;;;;;9.43;4.70;;;;;;;;;;5015130;28;20230;-70
2023/09/14 04:05:34;;;;;;;15.93;5.37;;;;;;;;;;5015428;28;20179;-70
2023/09/14 04:08:00;;;;;;;8.30;4.40;;;;;;;;;;5033155;28;20179;-70
2023/09/14 04:10:26;;;;;;;8.83;4.43;;;;;;;;;;5033050;28;20243;-70
2023/09/14 04:12:58;;;;;;;9.50;4.90;;;;;;;;;;5015524;28;20187;-71
2023/09/14 04:15:24;;;;;;;11.67;4.67;;;;;;;;;;5033255;28;20250;-70
2023/09/14 04:17:50;;;;;;;15.13;5.07;;;;;;;;;;5015575;28;20214;-70
2023/09/14 04:20:16;;;;;;;8.67;4.53;;;;;;;;;;5032842;28;20566;-70
2023/09/14 04:22:42;;;;;;;12.37;4.83;;;;;;;;;;5014853;28;20215;-70
2023/09/14 04:25:08;;;;;;;12.40;5.00;;;;;;;;;;5032566;28;20178;-71
2023/09/14 04:27:34;;;;;;;10.10;5.13;;;;;;;;;;5018175;28;20244;-70
2023/09/14 04:30:00;;;;;;;12.50;4.73;;;;;;;;;;5037361;28;20249;-70
2023/09/14 04:32:26;;;;;;;10.23;4.57;;;;;;;;;;5019978;28;20187;-70
2023/09/14 04:34:52;;;;;;;13.23;5.43;;;;;;;;;;5037029;28;20214;-70
2023/09/14 04:37:18;;;;;;;15.13;5.60;;;;;;;;;;5018963;28;20191;-70
2023/09/14 04:39:45;;;;;;;12.77;5.47;;;;;;;;;;5018627;28;20199;-70
2023/09/14 04:42:11;;;;;;;8.53;5.10;;;;;;;;;;5018399;28;20229;-70
2023/09/14 04:44:37;;;;;;;7.87;4.43;;;;;;;;;;5018776;28;20180;-70
2023/09/14 04:47:03;;;;;;;13.70;5.43;;;;;;;;;;5036461;28;20172;-70
2023/09/14 04:49:29;;;;;;;8.40;4.53;;;;;;;;;;5018466;28;20695;-71
2023/09/14 04:51:55;;;;;;;9.87;4.60;;;;;;;;;;5036531;28;20203;-70
2023/09/14 04:54:21;;;;;;;14.63;5.03;;;;;;;;;;5036739;28;20656;-70
2023/09/14 04:56:47;;;;;;;13.30;5.20;;;;;;;;;;5036506;28;20179;-70
2023/09/14 04:59:13;;;;;;;11.63;4.57;;;;;;;;;;5036501;28;20282;-70
2023/09/14 05:01:39;;;;;;;11.50;4.63;;;;;;;;;;5036647;28;20234;-71
2023/09/14 05:04:05;;;;;;;9.53;5.17;;;;;;;;;;5018434;28;20225;-71
2023/09/14 05:06:31;;;;;;;11.23;5.17;;;;;;;;;;5018306;28;20186;-70
2023/09/14 05:08:58;;;;;;;9.67;4.87;;;;;;;;;;5018317;28;20593;-70
2023/09/14 05:11:24;;;;;;;14.53;4.90;;;;;;;;;;5018252;28;20630;-71
2023/09/14 05:13:50;;;;;;;12.70;5.00;;;;;;;;;;5018210;28;20199;-70
2023/09/14 05:16:15;;;;;;;14.57;5.57;;;;;;;;;;5036018;28;20233;-70
2023/09/14 05:18:41;;;;;;;7.73;4.77;;;;;;;;;;5035738;28;20274;-70
2023/09/14 05:21:08;;;;;;;12.47;4.93;;;;;;;;;;5036233;28;20575;-71
2023/09/14 05:23:34;;;;;;;12.80;6.80;;;;;;;;;;5035523;28;20612;-71
2023/09/14 05:26:00;;;;;;;11.40;6.60;;;;;;;;;;5017850;28;20183;-71
2023/09/14 05:28:26;;;;;;;12.13;8.30;;;;;;;;;;5035722;28;20549;-71
2023/09/14 05:30:52;;;;;;;12.30;8.00;;;;;;;;;;5036006;28;20300;-71
2023/09/14 05:33:18;;;;;;;11.23;5.27;;;;;;;;;;5018004;28;20217;-71
2023/09/14 05:35:44;;;;;;;9.10;5.97;;;;;;;;;;5018078;28;20649;-71
2023/09/14 05:38:10;;;;;;;13.40;6.20;;;;;;;;;;5036284;28;20183;-71
2023/09/14 05:40:36;;;;;;;10.60;5.87;;;;;;;;;;5034690;28;20282;-71
2023/09/14 05:43:02;;;;;;;10.53;6.13;;;;;;;;;;5017402;28;20305;-70
2023/09/14 05:45:28;;;;;;;13.80;5.33;;;;;;;;;;5035707;28;20183;-71
2023/09/14 05:47:54;;;;;;;14.80;4.80;;;;;;;;;;5035199;28;20171;-71
2023/09/14 05:50:20;;;;;;;10.17;4.40;;;;;;;;;;5017117;28;20211;-71
2023/09/14 05:52:46;;;;;;;14.60;5.20;;;;;;;;;;5017259;28;20218;-71
2023/09/14 05:55:12;;;;;;;10.80;5.10;;;;;;;;;;5017173;28;20194;-71
2023/09/14 05:57:38;;;;;;;10.00;5.13;;;;;;;;;;5035032;28;20501;-71
2023/09/14 06:00:13;;;;;;;10.37;5.43;;;;;;;;;;5034920;28;20623;-71
2023/09/14 06:02:42;;;;;;;9.13;4.80;;;;;;;;;;5017163;28;20244;-71
2023/09/14 06:05:08;;;;;;;11.13;5.30;;;;;;;;;;5035027;28;20301;-71
2023/09/14 06:07:35;;;;;;;12.30;6.30;;;;;;;;;;5034991;28;20210;-71
2023/09/14 06:10:01;;;;;;;10.90;4.50;;;;;;;;;;5016771;28;20223;-71
2023/09/14 06:12:29;;;;;;;14.57;4.67;;;;;;;;;;5049423;22;20326;-67
2023/09/14 06:14:55;;;;;;;10.40;4.60;;;;;;;;;;5034450;28;20195;-66
2023/09/14 06:17:21;;;;;;;14.53;4.60;;;;;;;;;;5016728;28;20313;-67
2023/09/14 06:19:47;;;;;;;7.90;4.87;;;;;;;;;;5017359;28;20543;-67
2023/09/14 06:22:13;;;;;;;13.10;6.83;;;;;;;;;;5016234;28;20711;-66
2023/09/14 06:24:39;;;;;;;11.07;6.20;;;;;;;;;;5016694;28;20531;-67
2023/09/14 06:27:05;;;;;;;14.77;7.53;;;;;;;;;;5016505;28;20215;-67
2023/09/14 06:29:31;;;;;;;18.20;9.17;;;;;;;;;;5016312;28;20190;-68
2023/09/14 06:31:57;;;;;;;15.43;10.67;;;;;;;;;;5016105;28;20203;-66
2023/09/14 06:34:23;;;;;;;12.10;8.77;;;;;;;;;;5033974;28;20655;-67
2023/09/14 06:36:49;;;;;;;17.80;8.40;;;;;;;;;;5016128;28;20183;-67
2023/09/14 06:39:15;;;;;;;14.20;6.97;;;;;;;;;;5016089;28;20178;-66
2023/09/14 06:41:41;;;;;;;15.40;5.90;;;;;;;;;;5016087;28;20634;-67
2023/09/14 06:44:07;;;;;;;10.43;6.33;;;;;;;;;;5033833;28;20175;-67
2023/09/14 06:46:33;;;;;;;10.80;6.13;;;;;;;;;;5016322;28;20565;-67
2023/09/14 06:48:59;;;;;;;12.43;6.03;;;;;;;;;;5034257;28;20178;-66
2023/09/14 06:51:25;;;;;;;16.77;6.23;;;;;;;;;;5016051;28;20557;-68
2023/09/14 06:53:51;;;;;;;15.40;6.87;;;;;;;;;;5033110;28;20544;-67
2023/09/14 06:56:17;;;;;;;16.60;5.77;;;;;;;;;;5033975;28;20569;-66
2023/09/14 06:58:43;;;;;;;13.80;6.20;;;;;;;;;;5033647;28;20182;-67
2023/09/14 07:01:09;;;;;;;14.57;6.43;;;;;;;;;;5033358;28;20693;-68
2023/09/14 07:03:35;;;;;;;18.33;6.53;;;;;;;;;;5015738;28;20210;-66
2023/09/14 07:06:02;;;;;;;13.13;6.10;;;;;;;;;;5015733;28;20179;-66
2023/09/14 07:08:28;;;;;;;16.83;7.27;;;;;;;;;;5016135;28;20274;-67
2023/09/14 07:10:54;;;;;;;19.70;7.30;;;;;;;;;;5033563;28;20242;-66
2023/09/14 07:13:21;;;;;;;14.37;6.13;;;;;;;;;;5033383;28;20177;-67
2023/09/14 07:15:46;;;;;;;16.43;7.10;;;;;;;;;;5033533;28;20233;-67
2023/09/14 07:18:26;;;;;;;24.73;7.93;;;;;;;;;;5015712;28;20179;-68
2023/09/14 07:20:52;;;;;;;18.70;8.33;;;;;;;;;;5015429;28;20206;-68
2023/09/14 07:23:18;;;;;;;15.50;8.00;;;;;;;;;;5015150;28;20210;-68
2023/09/14 07:25:44;;;;;;;21.83;8.70;;;;;;;;;;5033270;28;20175;-67
2023/09/14 07:28:12;;;;;;;16.93;8.67;;;;;;;;;;5033491;28;20198;-67
2023/09/14 07:30:38;;;;;;;25.93;8.67;;;;;;;;;;5015558;28;20222;-68
2023/09/14 07:33:05;;;;;;;14.47;8.63;;;;;;;;;;5015610;28;20278;-66
2023/09/14 07:35:31;;;;;;;14.27;8.70;;;;;;;;;;5033280;28;20215;-68
2023/09/14 07:37:57;;;;;;;13.80;8.03;;;;;;;;;;5015356;28;20182;-68
2023/09/14 07:40:23;;;;;;;13.27;8.60;;;;;;;;;;5032878;28;20652;-66
2023/09/14 07:42:48;;;;;;;16.80;8.50;;;;;;;;;;5033014;28;20209;-67
2023/09/14 07:45:14;;;;;;;13.33;8.33;;;;;;;;;;5032994;28;20171;-68
2023/09/14 07:47:41;;;;;;;14.47;8.30;;;;;;;;;;5033629;28;20198;-68
2023/09/14 07:50:07;;;;;;;13.70;8.33;;;;;;;;;;5016129;28;20179;-68
2023/09/14 07:52:33;;;;;;;14.97;8.07;;;;;;;;;;5015161;28;20203;-68
2023/09/14 07:55:00;;;;;;;12.77;8.43;;;;;;;;;;5032857;28;20652;-67
2023/09/14 07:57:26;;;;;;;15.87;8.90;;;;;;;;;;5032890;28;20269;-68
2023/09/14 07:59:52;;;;;;;13.50;8.50;;;;;;;;;;5015091;28;20244;-67
2023/09/14 08:02:19;;;;;;;18.60;9.60;;;;;;;;;;5033290;28;20206;-68
2023/09/14 08:04:45;;;;;;;21.60;11.07;;;;;;;;;;5036055;28;20175;-67
2023/09/14 08:07:11;;;;;;;14.90;9.77;;;;;;;;;;5037089;28;20175;-67
2023/09/14 08:09:37;;;;;;;20.97;10.20;;;;;;;;;;5037124;28;20206;-68
2023/09/14 08:12:03;;;;;;;17.27;9.27;;;;;;;;;;5043759;28;20245;-67
2023/09/14 08:14:29;;;;;;;15.57;9.90;;;;;;;;;;5025666;28;20175;-67
2023/09/14 08:16:55;;;;;;;19.67;10.57;;;;;;;;;;5023619;28;20205;-68
2023/09/14 08:19:21;;;;;;;14.30;10.47;;;;;;;;;;5038571;28;20180;-67
2023/09/14 08:21:47;;;;;;;18.77;11.33;;;;;;;;;;5037088;28;20294;-68
2023/09/14 08:24:13;;;;;;;21.57;12.50;;;;;;;;;;5036683;28;20203;-68
2023/09/14 08:26:39;;;;;;;17.63;10.50;;;;;;;;;;5036500;28;20550;-68
2023/09/14 08:29:05;;;;;;;18.77;11.10;;;;;;;;;;5036983;28;20602;-68
2023/09/14 08:31:31;;;;;;;17.90;11.37;;;;;;;;;;5018982;28;20569;-68
2023/09/14 08:33:57;;;;;;;21.43;11.37;;;;;;;;;;5018699;28;20185;-68
2023/09/14 08:36:22;;;;;;;18.27;10.27;;;;;;;;;;5018594;28;20635;-68
2023/09/14 08:38:48;;;;;;;13.30;8.57;;;;;;;;;;5036184;28;20267;-68
2023/09/14 08:41:26;;;;;;;14.57;8.00;;;;;;;;;;5018224;28;20195;-67
2023/09/14 08:43:52;;;;;;;16.57;8.77;;;;;;;;;;5037066;28;20166;-66
2023/09/14 08:46:19;;;;;;;13.57;7.40;;;;;;;;;;5036692;28;20176;-67
2023/09/14 08:48:46;;;;;;;11.77;7.53;;;;;;;;;;5018526;28;20179;-67
2023/09/14 08:51:12;;;;;;;13.97;7.13;;;;;;;;;;5036049;28;20202;-66
2023/09/14 08:53:38;;;;;;;11.63;7.70;;;;;;;;;;5036345;28;20648;-68
2023/09/14 08:56:06;;;;;;;14.37;8.90;;;;;;;;;;5036770;28;20215;-67
2023/09/14 08:58:33;;;;;;;35.47;17.03;;;;;;;;;;5018704;28;20233;-67
2023/09/14 09:00:59;;;;;;;17.97;9.47;;;;;;;;;;5017968;28;20317;-66
2023/09/14 09:03:25;;;;;;;13.67;6.60;;;;;;;;;;5035684;28;20596;-68
2023/09/14 09:05:51;;;;;;;11.27;6.10;;;;;;;;;;5018570;28;20768;-68
2023/09/14 09:08:17;;;;;;;19.50;10.37;;;;;;;;;;5036411;28;20275;-68
2023/09/14 09:10:44;;;;;;;17.83;8.13;;;;;;;;;;5035930;28;20264;-67
2023/09/14 09:13:10;;;;;;;10.83;6.23;;;;;;;;;;5035854;28;20298;-68
2023/09/14 09:15:37;;;;;;;11.73;5.83;;;;;;;;;;5017492;28;20273;-68
2023/09/14 09:18:05;;;;;;;11.70;5.57;;;;;;;;;;5035875;28;20237;-67
2023/09/14 09:20:31;;;;;;;16.67;8.17;;;;;;;;;;5036550;28;20205;-66
2023/09/14 09:22:59;;;;;;;12.27;6.90;;;;;;;;;;5017936;28;20203;-68
2023/09/14 09:25:25;;;;;;;18.43;9.70;;;;;;;;;;5018259;28;20183;-68
2023/09/14 09:28:01;;;;;;;13.33;7.37;;;;;;;;;;5035853;28;20175;-67
2023/09/14 09:30:31;;;;;;;11.07;6.10;;;;;;;;;;5017601;28;20645;-68
2023/09/14 09:32:57;;;;;;;12.23;5.83;;;;;;;;;;5035773;28;20763;-68
2023/09/14 09:35:24;;;;;;;15.23;6.90;;;;;;;;;;5017850;28;20183;-69
2023/09/14 09:37:50;;;;;;;16.27;9.03;;;;;;;;;;5035691;28;20190;-67
2023/09/14 09:40:20;;;;;;;15.47;8.03;;;;;;;;;;5017567;28;20179;-68
2023/09/14 09:42:46;;;;;;;8.57;6.10;;;;;;;;;;5035118;28;20210;-68
2023/09/14 09:45:13;;;;;;;11.10;7.40;;;;;;;;;;5035436;28;20201;-67
2023/09/14 09:47:39;;;;;;;7.97;5.23;;;;;;;;;;5022198;28;20187;-69
2023/09/14 09:50:06;;;;;;;14.83;9.07;;;;;;;;;;5038572;28;20175;-69
2023/09/14 09:52:33;;;;;;;12.47;7.33;;;;;;;;;;5021049;28;20245;-68
2023/09/14 09:54:59;;;;;;;9.93;5.97;;;;;;;;;;5037630;28;20267;-68
2023/09/14 09:57:35;;;;;;;14.20;7.53;;;;;;;;;;5037709;28;20179;-69
2023/09/14 10:00:11;;;;;;;10.37;6.00;;;;;;;;;;5038145;28;20192;-69
2023/09/14 10:02:37;;;;;;;12.77;5.63;;;;;;;;;;5037454;28;20199;-69
2023/09/14 10:05:03;;;;;;;13.63;7.50;;;;;;;;;;5037338;28;20181;-69
2023/09/14 10:07:29;;;;;;;12.30;6.97;;;;;;;;;;5020360;28;20179;-69
2023/09/14 10:09:56;;;;;;;11.90;7.23;;;;;;;;;;5020220;28;20190;-69
2023/09/14 10:12:27;;;;;;;11.53;6.40;;;;;;;;;;5019823;28;20230;-70
2023/09/14 10:14:58;;;;;;;13.17;6.93;;;;;;;;;;5038070;28;20255;-70
2023/09/14 10:17:25;;;;;;;20.87;8.63;;;;;;;;;;5019854;28;20717;-69
2023/09/14 10:19:52;;;;;;;17.63;7.83;;;;;;;;;;5019531;28;20183;-70
2023/09/14 10:22:19;;;;;;;11.50;7.70;;;;;;;;;;5018906;28;20202;-70
2023/09/14 10:24:45;;;;;;;12.57;6.70;;;;;;;;;;5019198;28;20648;-71
2023/09/14 10:27:12;;;;;;;15.33;6.90;;;;;;;;;;5021299;28;20174;-69
2023/09/14 10:29:39;;;;;;;11.00;6.20;;;;;;;;;;5024731;28;20186;-70
2023/09/14 10:32:06;;;;;;;10.97;5.83;;;;;;;;;;5021943;28;20203;-70
2023/09/14 10:34:34;;;;;;;9.37;5.73;;;;;;;;;;5022606;28;20555;-68
2023/09/14 10:37:00;;;;;;;12.53;5.10;;;;;;;;;;5030066;28;20190;-70
2023/09/14 10:39:27;;;;;;;11.70;7.13;;;;;;;;;;5040135;28;20186;-69
2023/09/14 10:41:54;;;;;;;11.10;6.70;;;;;;;;;;5040076;28;20238;-69
2023/09/14 10:44:21;;;;;;;9.50;5.80;;;;;;;;;;5024643;28;20183;-68
2023/09/14 10:46:48;;;;;;;8.20;4.77;;;;;;;;;;5041617;28;20171;-69
2023/09/14 10:49:14;;;;;;;9.10;5.10;;;;;;;;;;5020730;28;20278;-69
2023/09/14 10:51:45;;;;;;;7.07;4.50;;;;;;;;;;5036602;28;20195;-69
2023/09/14 10:54:11;;;;;;;7.90;5.40;;;;;;;;;;5021481;28;20175;-69
2023/09/14 10:56:37;;;;;;;8.30;5.33;;;;;;;;;;5024249;28;20187;-68
2023/09/14 10:59:09;;;;;;;10.57;4.50;;;;;;;;;;5040057;28;20182;-69
2023/09/14 11:01:46;;;;;;;6.77;4.00;;;;;;;;;;5021340;28;20209;-70
2023/09/14 11:04:13;;;;;;;4.57;3.70;;;;;;;;;;5019554;28;20628;-69
2023/09/14 11:06:43;;;;;;;6.37;3.77;;;;;;;;;;5037376;28;20185;-69
2023/09/14 11:09:09;;;;;;;9.43;3.80;;;;;;;;;;5037593;28;20172;-69
2023/09/14 11:11:44;;;;;;;6.23;3.53;;;;;;;;;;5036643;28;20211;-70
2023/09/14 11:14:13;;;;;;;5.93;4.00;;;;;;;;;;5037668;28;20165;-70
2023/09/14 11:16:44;;;;;;;6.33;3.50;;;;;;;;;;5019763;28;20175;-70
2023/09/14 11:19:10;;;;;;;6.47;3.93;;;;;;;;;;5020036;28;20183;-70
2023/09/14 11:21:36;;;;;;;5.93;3.40;;;;;;;;;;5019330;28;20250;-70
2023/09/14 11:24:03;;;;;;;8.63;4.33;;;;;;;;;;5038265;28;20190;-69
2023/09/14 11:26:33;;;;;;;5.50;3.73;;;;;;;;;;5036560;28;20258;-69
2023/09/14 11:28:59;;;;;;;5.90;3.83;;;;;;;;;;5037273;28;20195;-69
2023/09/14 11:31:29;;;;;;;5.13;3.20;;;;;;;;;;5019714;28;20206;-68
2023/09/14 11:33:55;;;;;;;7.63;3.37;;;;;;;;;;5019459;28;20191;-70
2023/09/14 11:36:25;;;;;;;6.13;3.57;;;;;;;;;;5036995;28;20179;-70
2023/09/14 11:38:52;;;;;;;4.20;3.10;;;;;;;;;;5019352;28;20216;-70
2023/09/14 11:41:55;;;;;;;5.93;3.43;;;;;;;;;;5018951;28;20234;-69
2023/09/14 11:44:23;;;;;;;5.97;4.07;;;;;;;;;;4941421;29;20185;-69
2023/09/14 11:46:49;;;;;;;5.77;3.73;;;;;;;;;;5022957;28;20191;-69
2023/09/14 11:49:16;;;;;;;7.70;3.60;;;;;;;;;;5019186;28;20233;-70
2023/09/14 11:51:42;;;;;;;6.40;3.57;;;;;;;;;;5037043;28;20205;-69
2023/09/14 11:54:09;;;;;;;4.87;3.43;;;;;;;;;;5019763;28;20179;-70
2023/09/14 11:56:35;;;;;;;5.07;3.80;;;;;;;;;;5018990;28;20664;-69
2023/09/14 11:59:02;;;;;;;5.47;3.43;;;;;;;;;;5036866;28;20221;-69
2023/09/14 12:01:29;;;;;;;10.53;3.87;;;;;;;;;;5019669;28;20688;-68
2023/09/14 12:03:56;;;;;;;6.20;3.57;;;;;;;;;;5037833;28;20199;-69
2023/09/14 12:06:22;;;;;;;7.47;3.73;;;;;;;;;;5020060;28;20211;-69
2023/09/14 12:08:49;;;;;;;4.03;3.40;;;;;;;;;;5019650;28;20183;-70
2023/09/14 12:11:16;;;;;;;5.23;3.43;;;;;;;;;;5019793;28;20210;-70
2023/09/14 12:13:49;;;;;;;5.60;3.30;;;;;;;;;;5019963;28;20596;-70
2023/09/14 12:16:18;;;;;;;3.80;2.90;;;;;;;;;;5037502;28;20175;-70
2023/09/14 12:18:44;;;;;;;4.67;3.13;;;;;;;;;;5038434;28;20180;-69
2023/09/14 12:21:11;;;;;;;5.27;3.00;;;;;;;;;;5040818;22;20230;-69
2023/09/14 12:23:38;;;;;;;3.47;3.07;;;;;;;;;;5015486;28;20206;-70
2023/09/14 12:26:09;;;;;;;4.73;3.07;;;;;;;;;;5015574;28;20265;-68
2023/09/14 12:28:35;;;;;;;4.77;3.17;;;;;;;;;;5033029;28;20179;-69
2023/09/14 12:31:01;;;;;;;5.07;3.17;;;;;;;;;;5032871;28;20195;-68
2023/09/14 12:33:28;;;;;;;6.30;3.03;;;;;;;;;;5015872;28;20183;-70
2023/09/14 12:35:54;;;;;;;3.70;2.77;;;;;;;;;;5033401;28;20194;-70
2023/09/14 12:38:20;;;;;;;3.70;3.00;;;;;;;;;;5033195;28;20756;-69
2023/09/14 12:40:46;;;;;;;4.83;3.27;;;;;;;;;;5014898;28;20209;-69
2023/09/14 12:43:13;;;;;;;6.43;2.97;;;;;;;;;;5032788;28;20286;-69
2023/09/14 12:45:40;;;;;;;6.07;3.20;;;;;;;;;;5033021;28;20175;-69
2023/09/14 12:48:09;;;;;;;3.33;2.80;;;;;;;;;;5014595;28;20225;-69
2023/09/14 12:50:36;;;;;;;4.13;2.50;;;;;;;;;;5032957;28;20270;-69
2023/09/14 12:53:09;;;;;;;3.53;2.17;;;;;;;;;;5018449;28;20185;-69
2023/09/14 12:55:38;;;;;;;3.53;2.40;;;;;;;;;;5035946;28;20190;-68
2023/09/14 12:58:05;;;;;;;7.40;2.50;;;;;;;;;;5018629;28;20193;-69
2023/09/14 13:00:33;;;;;;;4.10;2.27;;;;;;;;;;5036064;28;20268;-69
2023/09/14 13:02:59;;;;;;;3.07;2.03;;;;;;;;;;5035918;28;20257;-69
2023/09/14 13:05:27;;;;;;;3.63;2.63;;;;;;;;;;5018923;28;20186;-69
2023/09/14 13:07:59;;;;;;;3.63;2.60;;;;;;;;;;5018259;28;20649;-69
2023/09/14 13:10:27;;;;;;;3.07;2.70;;;;;;;;;;5017921;28;20668;-69
2023/09/14 13:12:54;;;;;;;6.90;2.90;;;;;;;;;;5017896;28;20215;-69
2023/09/14 13:15:24;;;;;;;3.20;2.60;;;;;;;;;;5035431;28;20179;-69
2023/09/14 13:17:54;;;;;;;5.17;2.93;;;;;;;;;;5017748;28;20608;-69
2023/09/14 13:20:22;;;;;;;3.03;2.73;;;;;;;;;;5018304;28;20221;-69
2023/09/14 13:22:48;;;;;;;3.53;2.67;;;;;;;;;;5035313;28;20203;-69
2023/09/14 13:25:15;;;;;;;3.93;3.10;;;;;;;;;;5017631;28;20190;-69
2023/09/14 13:27:41;;;;;;;4.43;3.73;;;;;;;;;;5017576;28;20182;-69
2023/09/14 13:30:09;;;;;;;4.17;3.00;;;;;;;;;;5017556;28;20203;-69
2023/09/14 13:32:35;;;;;;;6.23;3.43;;;;;;;;;;5035327;28;20740;-69
2023/09/14 13:35:01;;;;;;;3.90;3.30;;;;;;;;;;5035061;28;20657;-69
2023/09/14 13:37:27;;;;;;;6.33;3.97;;;;;;;;;;5017245;28;20183;-69
2023/09/14 13:39:53;;;;;;;5.80;4.20;;;;;;;;;;5017090;28;20604;-69
2023/09/14 13:42:19;;;;;;;9.30;4.37;;;;;;;;;;5035242;28;20286;-68
2023/09/14 13:44:45;;;;;;;5.80;3.87;;;;;;;;;;5018123;28;20567;-69
2023/09/14 13:47:11;;;;;;;6.07;3.47;;;;;;;;;;5018531;28;20648;-69
2023/09/14 13:49:38;;;;;;;4.83;3.67;;;;;;;;;;5017652;28;20179;-69
2023/09/14 13:52:04;;;;;;;6.53;3.37;;;;;;;;;;5017598;28;20229;-69
2023/09/14 13:54:30;;;;;;;6.60;3.80;;;;;;;;;;5017335;28;20278;-69
2023/09/14 13:56:56;;;;;;;7.03;4.50;;;;;;;;;;5017542;28;20634;-69
2023/09/14 13:59:25;;;;;;;6.13;4.07;;;;;;;;;;5035102;28;20194;-69
2023/09/14 14:01:51;;;;;;;9.63;5.80;;;;;;;;;;5016763;28;20325;-69
2023/09/14 14:04:17;;;;;;;7.37;5.63;;;;;;;;;;5034658;28;20179;-69
2023/09/14 14:06:43;;;;;;;10.67;6.27;;;;;;;;;;5035070;28;20175;-69
2023/09/14 14:09:09;;;;;;;10.87;6.77;;;;;;;;;;5016839;28;20233;-69
2023/09/14 14:11:35;;;;;;;10.23;6.43;;;;;;;;;;5034637;28;20199;-69
2023/09/14 14:14:02;;;;;;;11.50;6.47;;;;;;;;;;5034728;28;20183;-69
2023/09/14 14:16:27;;;;;;;8.30;5.50;;;;;;;;;;5034588;28;20609;-69
2023/09/14 14:18:53;;;;;;;8.90;6.30;;;;;;;;;;5016597;28;20222;-69
2023/09/14 14:21:19;;;;;;;10.50;5.70;;;;;;;;;;5034109;28;20219;-69
2023/09/14 14:23:45;;;;;;;10.10;6.30;;;;;;;;;;5034652;28;20199;-69
2023/09/14 14:26:11;;;;;;;6.67;5.17;;;;;;;;;;5016704;28;20183;-69
2023/09/14 14:28:37;;;;;;;10.13;6.77;;;;;;;;;;5034383;28;20233;-69
2023/09/14 14:31:03;;;;;;;12.60;6.43;;;;;;;;;;5034680;28;20199;-70